createdAt,value
2019-05-05T00:01:06.649Z,2.90
2019-05-05T00:03:46.686Z,3.10
2019-05-05T00:06:16.474Z,3.35
2019-05-05T00:08:45.826Z,3.20
2019-05-05T00:11:19.570Z,2.90
2019-05-05T00:13:55.067Z,3.00
2019-05-05T00:16:44.519Z,3.15
2019-05-05T00:19:19.120Z,2.85
2019-05-05T00:21:45.157Z,3.60
2019-05-05T00:24:20.345Z,3.37
2019-05-05T00:26:49.683Z,3.65
2019-05-05T00:29:19.029Z,3.37
2019-05-05T00:31:48.721Z,3.58
2019-05-05T00:34:18.106Z,3.50
2019-05-05T00:36:47.541Z,3.70
2019-05-05T00:39:16.981Z,3.60
2019-05-05T00:41:46.226Z,3.30
2019-05-05T00:44:15.866Z,3.70
2019-05-05T00:46:58.506Z,3.50
2019-05-05T00:49:29.413Z,3.55
2019-05-05T00:51:59.442Z,3.80
2019-05-05T00:54:28.714Z,3.65
2019-05-05T00:56:58.253Z,3.47
2019-05-05T00:59:29.165Z,4.00
2019-05-05T01:02:04.626Z,3.37
2019-05-05T01:04:50.539Z,3.58
2019-05-05T01:09:49.841Z,3.65
2019-05-05T01:12:19.781Z,4.10
2019-05-05T01:14:49.132Z,3.58
2019-05-05T01:17:18.518Z,3.60
2019-05-05T01:20:00.250Z,4.10
2019-05-05T01:22:18.981Z,4.08
2019-05-05T01:24:48.338Z,4.12
2019-05-05T01:27:18.019Z,4.17
2019-05-05T01:29:47.653Z,3.95
2019-05-05T01:32:18.690Z,3.75
2019-05-05T01:34:48.008Z,4.22
2019-05-05T01:37:34.907Z,3.90
2019-05-05T01:42:38.870Z,4.20
2019-05-05T01:45:08.185Z,3.42
2019-05-05T01:47:37.830Z,4.15
2019-05-05T01:50:17.254Z,4.17
2019-05-05T01:52:38.079Z,4.47
2019-05-05T01:55:07.550Z,4.17
2019-05-05T01:57:36.918Z,4.03
2019-05-05T02:00:06.974Z,4.37
2019-05-05T02:02:36.386Z,4.50
2019-05-05T02:05:06.303Z,3.90
2019-05-05T02:07:35.657Z,4.67
2019-05-05T02:10:07.783Z,3.95
2019-05-05T02:12:57.814Z,4.03
2019-05-05T02:15:27.422Z,4.28
2019-05-05T02:17:56.777Z,4.30
2019-05-05T02:20:55.121Z,4.03
2019-05-05T02:23:24.609Z,4.35
2019-05-05T02:25:55.442Z,4.12
2019-05-05T02:28:26.338Z,4.47
2019-05-05T02:31:05.524Z,4.47
2019-05-05T02:33:35.317Z,5.12
2019-05-05T02:36:05.699Z,4.72
2019-05-05T02:38:36.253Z,4.55
2019-05-05T02:41:05.886Z,5.00
2019-05-05T02:43:35.297Z,4.62
2019-05-05T02:46:25.359Z,4.78
2019-05-05T02:48:55.392Z,4.67
2019-05-05T02:51:25.747Z,4.97
2019-05-05T02:53:55.672Z,4.25
2019-05-05T02:56:27.429Z,4.67
2019-05-05T02:59:26.604Z,4.35
2019-05-05T03:01:57.582Z,4.42
2019-05-05T03:04:26.833Z,4.40
2019-05-05T03:06:56.100Z,4.65
2019-05-05T03:09:25.690Z,5.08
2019-05-05T03:11:54.962Z,4.70
2019-05-05T03:14:24.210Z,5.03
2019-05-05T03:16:54.158Z,4.67
2019-05-05T03:19:27.308Z,4.55
2019-05-05T03:21:56.914Z,4.85
2019-05-05T03:24:26.225Z,4.90
2019-05-05T03:26:55.828Z,4.83
2019-05-05T03:29:25.209Z,4.55
2019-05-05T03:31:56.200Z,4.12
2019-05-05T03:34:25.462Z,4.58
2019-05-05T03:36:55.666Z,4.47
2019-05-05T03:39:26.605Z,4.35
2019-05-05T03:42:06.200Z,4.90
2019-05-05T03:44:39.759Z,5.03
2019-05-05T03:47:09.389Z,4.30
2019-05-05T03:49:38.771Z,5.25
2019-05-05T03:52:08.010Z,4.42
2019-05-05T03:54:37.313Z,4.75
2019-05-05T03:57:09.609Z,4.42
2019-05-05T03:59:41.329Z,5.17
2019-05-05T04:02:14.954Z,4.45
2019-05-05T04:04:46.157Z,4.35
2019-05-05T04:07:16.094Z,4.65
2019-05-05T04:09:45.345Z,4.75
2019-05-05T04:12:14.615Z,4.50
2019-05-05T04:14:44.906Z,5.40
2019-05-05T04:17:33.678Z,5.20
2019-05-05T04:20:05.374Z,4.50
2019-05-05T04:22:34.681Z,4.22
2019-05-05T04:25:05.971Z,4.65
2019-05-05T04:27:35.247Z,4.75
2019-05-05T04:30:06.434Z,4.40
2019-05-05T04:32:35.710Z,4.67
2019-05-05T04:35:07.698Z,5.20
2019-05-05T04:37:37.073Z,5.33
2019-05-05T04:40:06.429Z,4.92
2019-05-05T04:42:35.773Z,5.10
2019-05-05T04:45:06.614Z,5.42
2019-05-05T04:47:40.034Z,4.75
2019-05-05T04:50:14.916Z,6.15
2019-05-05T04:52:44.865Z,5.40
2019-05-05T04:55:14.246Z,5.15
2019-05-05T04:57:43.902Z,5.22
2019-05-05T05:00:13.761Z,5.12
2019-05-05T05:02:44.733Z,5.30
2019-05-05T05:05:21.761Z,5.95
2019-05-05T05:07:51.122Z,5.78
2019-05-05T05:10:20.390Z,5.75
2019-05-05T05:12:50.088Z,6.00
2019-05-05T05:15:19.354Z,5.72
2019-05-05T05:17:56.234Z,6.37
2019-05-05T05:20:25.534Z,5.85
2019-05-05T05:22:55.183Z,5.90
2019-05-05T05:25:24.790Z,5.78
2019-05-05T05:27:54.166Z,6.60
2019-05-05T05:30:24.275Z,6.40
2019-05-05T05:32:53.947Z,7.40
2019-05-05T05:35:24.393Z,7.05
2019-05-05T05:37:55.911Z,6.58
2019-05-05T05:40:26.529Z,6.45
2019-05-05T05:42:56.741Z,7.00
2019-05-05T05:45:30.326Z,7.12
2019-05-05T05:48:14.439Z,7.58
2019-05-05T05:50:45.772Z,7.00
2019-05-05T05:53:15.042Z,7.45
2019-05-05T05:55:44.860Z,8.05
2019-05-05T05:58:14.469Z,7.53
2019-05-05T06:00:44.297Z,6.90
2019-05-05T06:03:14.259Z,7.50
2019-05-05T06:05:43.828Z,7.47
2019-05-05T06:08:14.126Z,7.17
2019-05-05T06:10:44.381Z,7.62
2019-05-05T06:13:15.485Z,6.92
2019-05-05T06:15:45.047Z,7.37
2019-05-05T06:18:15.357Z,6.72
2019-05-05T06:20:44.779Z,7.35
2019-05-05T06:23:15.074Z,6.75
2019-05-05T06:25:44.851Z,6.90
2019-05-05T06:28:14.707Z,7.72
2019-05-05T06:30:44.494Z,7.40
2019-05-05T06:33:14.200Z,6.65
2019-05-05T06:35:44.358Z,6.92
2019-05-05T06:38:13.932Z,6.58
2019-05-05T06:40:53.854Z,6.47
2019-05-05T06:43:30.913Z,6.40
2019-05-05T06:46:10.883Z,5.87
2019-05-05T06:48:40.149Z,6.12
2019-05-05T06:51:09.591Z,6.12
2019-05-05T06:53:38.867Z,6.37
2019-05-05T06:56:08.109Z,6.20
2019-05-05T06:58:37.384Z,6.72
2019-05-05T07:01:06.669Z,7.42
2019-05-05T07:03:36.008Z,6.92
2019-05-05T07:06:05.569Z,6.92
2019-05-05T07:08:36.949Z,7.42
2019-05-05T07:11:06.374Z,6.72
2019-05-05T07:13:36.067Z,6.33
2019-05-05T07:16:05.481Z,6.55
2019-05-05T07:18:34.828Z,7.30
2019-05-05T07:21:05.066Z,7.97
2019-05-05T07:23:34.677Z,7.55
2019-05-05T07:26:04.342Z,6.95
2019-05-05T07:28:34.284Z,7.53
2019-05-05T07:31:04.586Z,7.58
2019-05-05T07:33:34.694Z,7.80
2019-05-05T07:36:21.666Z,7.95
2019-05-05T07:41:19.881Z,7.42
2019-05-05T07:43:49.249Z,7.55
2019-05-05T07:46:18.914Z,7.53
2019-05-05T07:48:48.270Z,7.50
2019-05-05T07:51:17.614Z,7.12
2019-05-05T07:53:46.929Z,7.35
2019-05-05T07:56:16.525Z,7.22
2019-05-05T07:58:45.903Z,7.25
2019-05-05T08:01:15.158Z,7.37
2019-05-05T08:03:44.811Z,7.20
2019-05-05T08:06:14.643Z,7.12
2019-05-05T08:08:45.230Z,7.47
2019-05-05T08:11:14.885Z,7.35
2019-05-05T08:13:44.464Z,7.25
2019-05-05T08:16:18.660Z,7.67
2019-05-05T08:18:54.330Z,7.10
2019-05-05T08:21:24.029Z,6.58
2019-05-05T08:23:57.890Z,7.28
2019-05-05T08:26:40.871Z,6.15
2019-05-05T08:29:27.865Z,9.55
2019-05-05T08:32:15.395Z,5.92
2019-05-05T08:34:57.365Z,5.72
2019-05-05T08:37:16.021Z,7.10
2019-05-05T08:39:45.313Z,6.65
2019-05-05T08:42:14.745Z,6.85
2019-05-05T08:44:44.765Z,7.40
2019-05-05T08:47:14.190Z,7.67
2019-05-05T08:49:44.229Z,7.87
2019-05-05T08:52:14.596Z,7.53
2019-05-05T08:54:44.632Z,7.30
2019-05-05T08:57:14.664Z,7.10
2019-05-05T08:59:44.063Z,6.17
2019-05-05T09:02:15.045Z,7.58
2019-05-05T09:04:44.918Z,6.67
2019-05-05T09:07:15.353Z,7.28
2019-05-05T09:09:44.778Z,6.80
2019-05-05T09:12:14.456Z,7.50
2019-05-05T09:14:44.917Z,7.10
2019-05-05T09:17:14.697Z,24.72
2019-05-05T09:19:44.903Z,6.90
2019-05-05T09:22:14.429Z,7.10
2019-05-05T09:24:53.577Z,7.15
2019-05-05T09:27:39.649Z,6.60
2019-05-05T09:30:10.675Z,7.90
2019-05-05T09:32:41.010Z,6.67
2019-05-05T09:35:10.362Z,6.92
2019-05-05T09:37:40.043Z,7.30
2019-05-05T09:40:09.327Z,8.30
2019-05-05T09:42:38.979Z,6.83
2019-05-05T09:45:09.265Z,6.47
2019-05-05T09:47:39.781Z,6.17
2019-05-05T09:50:09.226Z,6.15
2019-05-05T09:52:38.494Z,7.22
2019-05-05T09:55:08.126Z,7.50
2019-05-05T09:57:37.839Z,11.83
2019-05-05T10:00:09.809Z,8.50
2019-05-05T10:02:40.950Z,7.10
2019-05-05T10:05:10.487Z,6.78
2019-05-05T10:07:40.174Z,26.60
2019-05-05T10:10:09.754Z,8.83
2019-05-05T10:12:39.132Z,6.12
2019-05-05T10:15:08.778Z,7.10
2019-05-05T10:17:38.118Z,5.90
2019-05-05T10:20:08.632Z,5.90
2019-05-05T10:22:38.147Z,5.30
2019-05-05T10:25:25.526Z,6.95
2019-05-05T10:27:55.681Z,6.75
2019-05-05T10:30:25.061Z,6.80
2019-05-05T10:32:54.731Z,6.78
2019-05-05T10:35:24.079Z,5.95
2019-05-05T10:37:54.475Z,5.67
2019-05-05T10:40:25.713Z,5.70
2019-05-05T10:42:54.965Z,5.75
2019-05-05T10:45:26.227Z,6.60
2019-05-05T10:47:55.644Z,6.55
2019-05-05T10:50:24.967Z,6.95
2019-05-05T10:52:54.648Z,5.87
2019-05-05T10:55:24.260Z,6.55
2019-05-05T10:57:54.398Z,6.00
2019-05-05T11:00:44.006Z,7.05
2019-05-05T11:03:14.961Z,5.97
2019-05-05T11:05:44.939Z,6.00
2019-05-05T11:08:14.439Z,5.35
2019-05-05T11:10:44.874Z,5.95
2019-05-05T11:13:14.854Z,4.92
2019-05-05T11:15:45.174Z,4.70
2019-05-05T11:18:15.241Z,4.33
2019-05-05T11:20:45.126Z,4.67
2019-05-05T11:23:15.164Z,4.65
2019-05-05T11:25:45.862Z,5.67
2019-05-05T11:28:15.105Z,5.85
2019-05-05T11:30:46.921Z,6.60
2019-05-05T11:33:29.829Z,4.90
2019-05-05T11:36:18.846Z,4.97
2019-05-05T11:38:48.249Z,4.80
2019-05-05T11:41:17.519Z,4.15
2019-05-05T11:43:46.830Z,4.53
2019-05-05T11:46:16.104Z,5.05
2019-05-05T11:48:45.753Z,4.05
2019-05-05T11:51:15.291Z,4.08
2019-05-05T11:53:45.012Z,3.60
2019-05-05T11:56:14.542Z,12.60
2019-05-05T11:58:44.496Z,4.20
2019-05-05T12:01:14.132Z,4.60
2019-05-05T12:03:44.299Z,4.25
2019-05-05T12:06:14.797Z,4.45
2019-05-05T12:08:45.878Z,4.20
2019-05-05T12:11:15.545Z,4.10
2019-05-05T12:13:45.235Z,4.17
2019-05-05T12:16:16.402Z,3.70
2019-05-05T12:18:46.000Z,3.92
2019-05-05T12:21:15.302Z,3.92
2019-05-05T12:23:44.691Z,3.65
2019-05-05T12:26:21.427Z,4.33
2019-05-05T12:28:54.421Z,3.72
2019-05-05T12:31:28.948Z,3.98
2019-05-05T12:33:58.323Z,4.17
2019-05-05T12:36:27.682Z,4.30
2019-05-05T12:38:57.066Z,4.40
2019-05-05T12:41:26.382Z,4.60
2019-05-05T12:43:56.087Z,4.58
2019-05-05T12:46:33.726Z,4.40
2019-05-05T12:49:04.891Z,4.15
2019-05-05T12:51:34.385Z,3.90
2019-05-05T12:54:04.534Z,3.52
2019-05-05T12:56:35.073Z,3.90
2019-05-05T12:59:07.052Z,3.52
2019-05-05T13:01:41.267Z,3.90
2019-05-05T13:04:10.639Z,4.12
2019-05-05T13:06:39.902Z,4.25
2019-05-05T13:09:09.217Z,4.25
2019-05-05T13:11:38.753Z,4.00
2019-05-05T13:14:08.286Z,3.70
2019-05-05T13:16:37.741Z,3.72
2019-05-05T13:19:08.737Z,3.87
2019-05-05T13:21:54.156Z,3.52
2019-05-05T13:24:34.319Z,3.40
2019-05-05T13:27:11.629Z,3.52
2019-05-05T13:29:41.084Z,3.27
2019-05-05T13:32:10.421Z,3.40
2019-05-05T13:34:39.822Z,5.67
2019-05-05T13:37:09.089Z,4.00
2019-05-05T13:39:38.341Z,4.60
2019-05-05T13:42:07.869Z,3.52
2019-05-05T13:44:53.681Z,4.12
2019-05-05T13:47:23.834Z,3.72
2019-05-05T13:50:04.095Z,3.15
2019-05-05T13:52:33.762Z,3.40
2019-05-05T13:55:05.830Z,3.37
2019-05-05T13:57:35.280Z,3.15
2019-05-05T14:00:07.033Z,4.08
2019-05-05T14:02:36.558Z,3.37
2019-05-05T14:05:06.865Z,4.00
2019-05-05T14:07:37.281Z,3.72
2019-05-05T14:10:24.918Z,3.20
2019-05-05T14:12:54.538Z,3.58
2019-05-05T14:15:24.261Z,3.40
2019-05-05T14:18:06.205Z,3.62
2019-05-05T14:20:35.650Z,3.25
2019-05-05T14:23:05.134Z,3.17
2019-05-05T14:25:34.764Z,3.35
2019-05-05T14:28:04.027Z,3.10
2019-05-05T14:30:54.617Z,3.22
2019-05-05T14:33:25.620Z,3.65
2019-05-05T14:35:56.841Z,3.67
2019-05-05T14:38:30.283Z,3.47
2019-05-05T14:40:59.554Z,3.12
2019-05-05T14:43:28.873Z,3.40
2019-05-05T14:45:58.263Z,3.55
2019-05-05T14:48:28.349Z,3.67
2019-05-05T14:50:57.948Z,3.80
2019-05-05T14:53:27.377Z,3.92
2019-05-05T14:55:56.726Z,3.47
2019-05-05T14:58:26.144Z,3.80
2019-05-05T15:00:55.461Z,3.50
2019-05-05T15:03:24.800Z,3.65
2019-05-05T15:06:04.621Z,3.22
2019-05-05T15:08:41.428Z,3.25
2019-05-05T15:11:24.447Z,3.50
2019-05-05T15:13:54.112Z,3.55
2019-05-05T15:16:24.445Z,3.50
2019-05-05T15:18:54.104Z,3.17
2019-05-05T15:21:24.681Z,3.42
2019-05-05T15:23:54.141Z,2.72
2019-05-05T15:26:23.840Z,2.92
2019-05-05T15:29:00.862Z,3.00
2019-05-05T15:31:25.258Z,3.10
2019-05-05T15:33:54.638Z,2.80
2019-05-05T15:36:24.345Z,2.60
2019-05-05T15:38:55.178Z,3.10
2019-05-05T15:41:24.739Z,2.90
2019-05-05T15:43:54.449Z,3.27
2019-05-05T15:46:24.448Z,2.60
2019-05-05T15:48:54.589Z,3.10
2019-05-05T15:51:24.074Z,3.20
2019-05-05T15:53:54.259Z,2.72
2019-05-05T15:56:24.477Z,2.77
2019-05-05T15:58:53.910Z,3.37
2019-05-05T16:01:23.781Z,3.22
2019-05-05T16:03:54.320Z,3.20
2019-05-05T16:06:23.802Z,3.47
2019-05-05T16:08:55.956Z,3.37
2019-05-05T16:11:26.774Z,3.22
2019-05-05T16:13:54.974Z,3.10
2019-05-05T16:16:34.902Z,2.72
2019-05-05T16:19:24.795Z,2.58
2019-05-05T16:21:56.974Z,2.50
2019-05-05T16:24:27.886Z,2.27
2019-05-05T16:26:57.201Z,2.12
2019-05-05T16:29:26.821Z,2.15
2019-05-05T16:31:56.066Z,2.20
2019-05-05T16:34:25.442Z,2.20
2019-05-05T16:36:57.075Z,2.20
2019-05-05T16:39:25.787Z,2.15
2019-05-05T16:41:55.385Z,2.12
2019-05-05T16:44:24.816Z,1.75
2019-05-05T16:46:54.265Z,1.80
2019-05-05T16:49:23.654Z,1.72
2019-05-05T16:51:54.604Z,1.70
2019-05-05T16:54:25.450Z,2.08
2019-05-05T16:56:55.087Z,1.75
2019-05-05T16:59:24.706Z,1.70
2019-05-05T17:01:54.156Z,1.60
2019-05-05T17:04:24.333Z,1.50
2019-05-05T17:06:54.648Z,1.60
2019-05-05T17:09:24.230Z,1.92
2019-05-05T17:12:13.951Z,1.75
2019-05-05T17:14:50.708Z,2.15
2019-05-05T17:17:26.051Z,2.17
2019-05-05T17:19:57.875Z,2.00
2019-05-05T17:22:33.890Z,2.15
2019-05-05T17:25:03.086Z,2.07
2019-05-05T17:27:47.035Z,2.33
2019-05-05T17:30:04.534Z,1.92
2019-05-05T17:32:36.014Z,2.15
2019-05-05T17:35:05.291Z,2.00
2019-05-05T17:37:34.603Z,2.00
2019-05-05T17:40:07.818Z,2.42
2019-05-05T17:42:41.734Z,2.37
2019-05-05T17:45:31.040Z,2.20
2019-05-05T17:48:04.795Z,1.70
2019-05-05T17:50:47.835Z,2.05
2019-05-05T17:53:27.729Z,1.82
2019-05-05T17:55:58.642Z,1.90
2019-05-05T17:58:28.042Z,2.12
2019-05-05T18:00:58.970Z,2.25
2019-05-05T18:03:28.456Z,2.20
2019-05-05T18:05:59.685Z,2.20
2019-05-05T18:08:44.584Z,2.30
2019-05-05T18:11:21.669Z,2.35
2019-05-05T18:13:55.729Z,2.20
2019-05-05T18:16:27.108Z,2.00
2019-05-05T18:18:56.558Z,1.98
2019-05-05T18:21:29.332Z,3.92
2019-05-05T18:23:57.089Z,2.95
2019-05-05T18:26:27.726Z,2.87
2019-05-05T18:28:56.976Z,3.17
2019-05-05T18:31:26.628Z,4.22
2019-05-05T18:33:55.949Z,5.00
2019-05-05T18:36:25.333Z,3.98
2019-05-05T18:38:54.949Z,3.72
2019-05-05T18:41:26.023Z,2.83
2019-05-05T18:43:56.929Z,1.85
2019-05-05T18:46:26.249Z,2.00
2019-05-05T18:48:55.621Z,1.90
2019-05-05T18:51:25.240Z,1.98
2019-05-05T18:53:55.055Z,1.85
2019-05-05T18:56:24.349Z,1.75
2019-05-05T18:58:54.262Z,2.08
2019-05-05T19:01:44.581Z,2.08
2019-05-05T19:04:16.038Z,2.20
2019-05-05T19:06:49.782Z,2.10
2019-05-05T19:09:24.886Z,2.10
2019-05-05T19:11:54.671Z,2.22
2019-05-05T19:14:24.340Z,2.17
2019-05-05T19:16:55.704Z,2.40
2019-05-05T19:19:27.353Z,2.30
2019-05-05T19:22:00.397Z,2.40
2019-05-05T19:24:29.855Z,2.90
2019-05-05T19:26:59.378Z,2.50
2019-05-05T19:29:28.698Z,2.58
2019-05-05T19:31:58.081Z,2.92
2019-05-05T19:34:27.406Z,2.80
2019-05-05T19:36:56.792Z,2.70
2019-05-05T19:39:26.773Z,2.92
2019-05-05T19:41:56.092Z,2.50
2019-05-05T19:44:26.140Z,2.72
2019-05-05T19:46:57.151Z,2.40
2019-05-05T19:49:26.699Z,2.40
2019-05-05T19:51:56.074Z,2.60
2019-05-05T19:54:25.470Z,2.47
2019-05-05T19:56:55.043Z,2.85
2019-05-05T19:59:24.431Z,2.62
2019-05-05T20:01:54.163Z,2.42
2019-05-05T20:04:24.139Z,2.25
2019-05-05T20:06:54.888Z,2.42
2019-05-05T20:09:24.819Z,2.25
2019-05-05T20:11:54.600Z,2.85
2019-05-05T20:14:24.818Z,2.58
2019-05-05T20:20:00.373Z,2.35
2019-05-05T20:22:29.695Z,2.00
2019-05-05T20:24:58.962Z,2.08
2019-05-05T20:27:28.394Z,2.22
2019-05-05T20:29:57.778Z,2.12
2019-05-05T20:32:30.129Z,2.52
2019-05-05T20:35:10.328Z,2.67
2019-05-05T20:37:44.275Z,2.30
2019-05-05T20:40:15.181Z,2.25
2019-05-05T20:42:44.769Z,2.72
2019-05-05T20:45:17.886Z,2.47
2019-05-05T20:47:47.317Z,2.50
2019-05-05T20:50:16.773Z,2.52
2019-05-05T20:52:46.125Z,2.72
2019-05-05T20:55:16.574Z,2.62
2019-05-05T20:57:45.934Z,2.47
2019-05-05T21:00:17.075Z,2.60
2019-05-05T21:02:46.710Z,3.35
2019-05-05T21:05:16.153Z,4.90
2019-05-05T21:07:45.606Z,5.10
2019-05-05T21:10:14.977Z,5.00
2019-05-05T21:12:45.663Z,4.50
2019-05-05T21:15:15.118Z,4.62
2019-05-05T21:17:45.042Z,3.83
2019-05-05T21:20:14.592Z,3.30
2019-05-05T21:22:45.563Z,3.20
2019-05-05T21:25:28.593Z,3.17
2019-05-05T21:27:57.872Z,3.25
2019-05-05T21:30:27.123Z,3.00
2019-05-05T21:32:56.517Z,3.30
2019-05-05T21:35:25.763Z,3.10
2019-05-05T21:37:55.141Z,3.00
2019-05-05T21:40:25.458Z,3.05
2019-05-05T21:42:55.140Z,3.20
2019-05-05T21:45:25.750Z,2.98
2019-05-05T21:47:55.130Z,3.20
2019-05-05T21:50:28.521Z,3.15
2019-05-05T21:53:18.510Z,3.25
2019-05-05T21:55:49.513Z,3.08
2019-05-05T21:58:22.626Z,2.80
2019-05-05T22:00:54.842Z,3.17
2019-05-05T22:03:26.168Z,3.08
2019-05-05T22:05:56.077Z,2.87
2019-05-05T22:08:25.440Z,2.60
2019-05-05T22:10:54.713Z,3.42
2019-05-05T22:13:25.137Z,3.10
2019-05-05T22:15:54.672Z,3.05
2019-05-05T22:18:23.926Z,3.27
2019-05-05T22:21:10.825Z,3.12
2019-05-05T22:26:09.070Z,2.80
2019-05-05T22:28:38.446Z,3.15
2019-05-05T22:31:08.109Z,3.17
2019-05-05T22:33:37.354Z,3.15
2019-05-05T22:36:07.123Z,3.15
2019-05-05T22:38:36.474Z,3.22
2019-05-05T22:41:05.745Z,3.00
2019-05-05T22:43:35.036Z,2.70
2019-05-05T22:46:04.750Z,2.85
2019-05-05T22:48:34.625Z,2.85
2019-05-05T22:51:04.102Z,3.35
2019-05-05T22:53:34.652Z,3.30
2019-05-05T22:56:04.149Z,3.20
2019-05-05T22:58:34.879Z,2.80
2019-05-05T23:01:04.709Z,2.87
2019-05-05T23:03:40.158Z,3.00
2019-05-05T23:06:11.147Z,3.05
2019-05-05T23:08:40.418Z,2.90
2019-05-05T23:11:09.890Z,2.58
2019-05-05T23:13:39.279Z,2.72
2019-05-05T23:16:16.086Z,2.90
2019-05-05T23:18:45.736Z,3.08
2019-05-05T23:21:34.522Z,3.37
2019-05-05T23:24:08.248Z,3.05
2019-05-05T23:26:45.385Z,2.80
2019-05-05T23:29:14.760Z,3.12
2019-05-05T23:31:44.566Z,2.98
2019-05-05T23:34:14.762Z,2.65
2019-05-05T23:36:44.492Z,3.08
2019-05-05T23:39:14.995Z,2.72
2019-05-05T23:41:44.245Z,2.75
2019-05-05T23:44:14.581Z,3.30
2019-05-05T23:46:44.113Z,2.65
2019-05-05T23:49:13.872Z,3.02
2019-05-05T23:51:44.330Z,2.87
2019-05-05T23:54:26.591Z,2.77
2019-05-05T23:56:56.006Z,2.80
2019-05-05T23:59:25.384Z,2.98
